Time,TemperatureF,DewpointF,PressureIn,WindDirection,WindDirectionDegrees,WindSpeedMPH,WindSpeedGustMPH,Humidity,HourlyPrecipIn,Conditions,Clouds,dailyrainin,SoftwareType,DateUTC
2013-07-10 00:00:00,79.4,73.1,30.09,East,94,2.0,2.0,81,0.00,,,0.00,Wunderground v.1.15,2013-07-10 04:00:00,
2013-07-10 00:10:00,79.3,73.0,30.09,ESE,118,2.0,2.0,81,0.00,,,0.00,Wunderground v.1.15,2013-07-10 04:10:00,
2013-07-10 00:20:00,79.3,72.6,30.09,ESE,115,1.0,2.0,80,0.00,,,0.00,Wunderground v.1.15,2013-07-10 04:20:00,
2013-07-10 00:30:00,79.3,72.6,30.09,SE,129,2.0,2.0,80,0.00,,,0.00,Wunderground v.1.15,2013-07-10 04:30:00,
2013-07-10 00:40:00,79.2,72.5,30.10,East,91,1.0,1.0,80,0.00,,,0.00,Wunderground v.1.15,2013-07-10 04:40:00,
2013-07-10 00:50:00,79.1,72.4,30.09,SSE,150,0.0,0.0,80,0.00,,,0.00,Wunderground v.1.15,2013-07-10 04:50:00,
2013-07-10 01:00:00,78.8,72.1,30.09,SSE,150,0.0,0.0,80,0.00,,,0.00,Wunderground v.1.15,2013-07-10 05:00:00,
2013-07-10 01:10:00,78.9,72.6,30.09,South,169,0.0,3.0,81,0.00,,,0.00,Wunderground v.1.15,2013-07-10 05:10:00,
2013-07-10 01:20:00,78.9,72.9,30.09,SSE,166,1.0,3.0,82,0.00,,,0.00,Wunderground v.1.15,2013-07-10 05:20:00,
2013-07-10 01:30:00,78.8,72.8,30.08,South,172,1.0,1.0,82,0.00,,,0.00,Wunderground v.1.15,2013-07-10 05:30:00,
2013-07-10 01:40:00,78.4,71.7,30.09,SSE,149,2.0,12.0,80,0.00,,,0.00,Wunderground v.1.15,2013-07-10 05:40:00,
2013-07-10 01:50:00,75.4,70.6,30.08,WSW,248,7.0,7.0,85,1.30,,,0.24,Wunderground v.1.15,2013-07-10 05:50:00,
2013-07-10 02:00:00,73.6,69.8,30.08,WNW,295,2.0,2.0,88,0.10,,,0.26,Wunderground v.1.15,2013-07-10 06:00:00,
2013-07-10 02:10:00,73.3,70.2,30.07,NW,309,1.0,1.0,90,0.04,,,0.26,Wunderground v.1.15,2013-07-10 06:10:00,
2013-07-10 02:20:00,73.4,70.6,30.06,NW,307,0.0,0.0,91,0.00,,,0.26,Wunderground v.1.15,2013-07-10 06:20:00,
2013-07-10 02:30:00,73.5,71.0,30.07,East,94,0.0,0.0,92,0.00,,,0.26,Wunderground v.1.15,2013-07-10 06:30:00,
2013-07-10 02:40:00,73.9,71.4,30.07,ENE,75,1.0,1.0,92,0.00,,,0.27,Wunderground v.1.15,2013-07-10 06:40:00,
2013-07-10 02:50:00,73.7,71.2,30.07,WNW,283,1.0,2.0,92,0.08,,,0.28,Wunderground v.1.15,2013-07-10 06:50:00,
2013-07-10 03:00:00,73.7,71.5,30.07,NE,49,2.0,2.0,93,0.08,,,0.29,Wunderground v.1.15,2013-07-10 07:00:00,
2013-07-10 03:10:00,74.1,72.3,30.08,ESE,114,3.0,8.0,94,6.70,,,0.51,Wunderground v.1.15,2013-07-10 07:10:00,
2013-07-10 03:20:00,73.5,71.4,30.07,WSW,256,6.0,6.0,93,0.39,,,0.88,Wunderground v.1.15,2013-07-10 07:20:00,
2013-07-10 03:30:00,73.9,71.1,30.06,ENE,69,3.0,3.0,91,0.05,,,0.89,Wunderground v.1.15,2013-07-10 07:30:00,
2013-07-10 03:40:00,73.7,71.5,30.08,SW,235,2.0,12.0,93,3.35,,,1.13,Wunderground v.1.15,2013-07-10 07:40:00,
2013-07-10 03:50:00,71.7,69.3,30.07,WSW,242,6.0,6.0,92,0.72,,,1.52,Wunderground v.1.15,2013-07-10 07:50:00,
2013-07-10 04:00:00,70.7,68.9,30.07,North,359,2.0,4.0,94,2.03,,,1.88,Wunderground v.1.15,2013-07-10 08:00:00,
2013-07-10 04:10:00,70.6,69.1,30.07,NNW,338,2.0,3.0,95,0.08,,,1.91,Wunderground v.1.15,2013-07-10 08:10:00,
2013-07-10 04:20:00,70.7,69.2,30.08,NE,41,4.0,5.0,95,0.04,,,1.92,Wunderground v.1.15,2013-07-10 08:20:00,
2013-07-10 04:30:00,70.7,69.2,30.08,NE,37,3.0,3.0,95,0.80,,,1.96,Wunderground v.1.15,2013-07-10 08:30:00,
2013-07-10 04:40:00,71.5,70.6,30.08,SE,124,2.0,3.0,97,1.78,,,2.19,Wunderground v.1.15,2013-07-10 08:40:00,
2013-07-10 04:50:00,71.3,69.8,30.07,SSE,163,3.0,3.0,95,0.26,,,2.36,Wunderground v.1.15,2013-07-10 08:50:00,
2013-07-10 05:00:00,71.4,70.2,30.07,South,191,2.0,3.0,96,0.10,,,2.37,Wunderground v.1.15,2013-07-10 09:00:00,
2013-07-10 05:10:00,71.3,69.8,30.06,SSW,203,2.0,2.0,95,0.25,,,2.39,Wunderground v.1.15,2013-07-10 09:10:00,
2013-07-10 05:20:00,71.4,69.9,30.05,East,93,0.0,0.0,95,0.05,,,2.39,Wunderground v.1.15,2013-07-10 09:20:00,
2013-07-10 05:30:00,71.3,69.8,30.06,SW,229,1.0,1.0,95,0.00,,,2.39,Wunderground v.1.15,2013-07-10 09:30:00,
2013-07-10 05:40:00,71.4,70.2,30.06,SW,228,0.0,0.0,96,0.00,,,2.39,Wunderground v.1.15,2013-07-10 09:40:00,
2013-07-10 05:50:00,71.4,69.9,30.06,SW,228,0.0,0.0,95,0.00,,,2.39,Wunderground v.1.15,2013-07-10 09:50:00,
2013-07-10 06:00:00,71.5,70.3,30.06,SW,229,0.0,0.0,96,0.00,,,2.39,Wunderground v.1.15,2013-07-10 10:00:00,
2013-07-10 06:10:00,71.6,70.4,30.05,SW,229,0.0,0.0,96,0.00,,,2.39,Wunderground v.1.15,2013-07-10 10:10:00,
2013-07-10 06:20:00,71.9,71.0,30.05,WSW,240,0.0,0.0,97,0.00,,,2.39,Wunderground v.1.15,2013-07-10 10:20:00,
2013-07-10 06:30:00,71.8,70.6,30.05,WSW,239,0.0,0.0,96,0.00,,,2.39,Wunderground v.1.15,2013-07-10 10:30:00,
2013-07-10 06:40:00,71.8,70.6,30.06,WSW,238,0.0,0.0,96,0.00,,,2.40,Wunderground v.1.15,2013-07-10 10:40:00,
2013-07-10 06:50:00,71.8,70.6,30.06,WSW,238,0.0,0.0,96,0.00,,,2.40,Wunderground v.1.15,2013-07-10 10:50:00,
2013-07-10 07:00:00,71.8,70.9,30.06,WSW,238,0.0,0.0,97,0.00,,,2.40,Wunderground v.1.15,2013-07-10 11:00:00,
2013-07-10 07:10:00,71.9,71.0,30.06,WSW,239,0.0,0.0,97,0.00,,,2.40,Wunderground v.1.15,2013-07-10 11:10:00,
2013-07-10 07:20:00,72.2,71.3,30.06,WSW,239,0.0,0.0,97,0.00,,,2.40,Wunderground v.1.15,2013-07-10 11:20:00,
2013-07-10 07:30:00,72.5,71.6,30.07,WSW,238,0.0,0.0,97,0.00,,,2.40,Wunderground v.1.15,2013-07-10 11:30:00,
2013-07-10 07:40:00,72.7,71.8,30.07,WSW,238,0.0,0.0,97,0.00,,,2.40,Wunderground v.1.15,2013-07-10 11:40:00,
2013-07-10 07:50:00,72.9,72.0,30.07,WSW,239,0.0,0.0,97,0.00,,,2.40,Wunderground v.1.15,2013-07-10 11:50:00,
2013-07-10 08:00:00,73.4,72.5,30.08,WSW,239,0.0,0.0,97,0.00,,,2.40,Wunderground v.1.15,2013-07-10 12:00:00,
2013-07-10 08:10:00,73.7,72.8,30.08,WSW,240,0.0,0.0,97,0.00,,,2.40,Wunderground v.1.15,2013-07-10 12:10:00,
2013-07-10 08:20:00,74.0,73.1,30.08,WSW,240,0.0,0.0,97,0.00,,,2.40,Wunderground v.1.15,2013-07-10 12:20:00,
2013-07-10 08:30:00,74.4,73.5,30.08,WSW,240,0.0,0.0,97,0.00,,,2.40,Wunderground v.1.15,2013-07-10 12:30:00,
2013-07-10 08:40:00,74.9,74.0,30.08,WSW,240,0.0,0.0,97,0.00,,,2.40,Wunderground v.1.15,2013-07-10 12:40:00,
2013-07-10 08:50:00,75.3,74.4,30.09,NE,51,0.0,0.0,97,0.00,,,2.40,Wunderground v.1.15,2013-07-10 12:50:00,
2013-07-10 09:00:00,75.4,74.5,30.09,ENE,59,0.0,0.0,97,0.00,,,2.40,Wunderground v.1.15,2013-07-10 13:00:00,
2013-07-10 09:10:00,75.5,74.6,30.10,NE,49,1.0,1.0,97,0.00,,,2.40,Wunderground v.1.15,2013-07-10 13:10:00,
2013-07-10 09:20:00,75.9,75.0,30.10,NE,51,0.0,0.0,97,0.00,,,2.40,Wunderground v.1.15,2013-07-10 13:20:00,
2013-07-10 09:30:00,76.4,75.5,30.10,NE,49,0.0,0.0,97,0.00,,,2.40,Wunderground v.1.15,2013-07-10 13:30:00,
2013-07-10 09:40:00,76.5,75.6,30.10,NNE,33,0.0,0.0,97,0.00,,,2.40,Wunderground v.1.15,2013-07-10 13:40:00,
2013-07-10 09:50:00,76.8,75.6,30.10,NNE,29,1.0,1.0,96,0.00,,,2.40,Wunderground v.1.15,2013-07-10 13:50:00,
2013-07-10 10:00:00,77.2,76.0,30.09,North,6,1.0,1.0,96,0.00,,,2.40,Wunderground v.1.15,2013-07-10 14:00:00,
2013-07-10 10:10:00,77.4,75.9,30.10,East,85,1.0,1.0,95,0.00,,,2.40,Wunderground v.1.15,2013-07-10 14:10:00,
2013-07-10 10:20:00,76.6,74.1,30.10,East,81,4.0,5.0,92,0.00,,,2.40,Wunderground v.1.15,2013-07-10 14:20:00,
2013-07-10 10:30:00,76.3,73.8,30.10,ENE,69,4.0,4.0,92,0.00,,,2.40,Wunderground v.1.15,2013-07-10 14:30:00,
2013-07-10 10:40:00,76.3,73.1,30.09,East,89,3.0,5.0,90,0.00,,,2.40,Wunderground v.1.15,2013-07-10 14:40:00,
2013-07-10 10:50:00,76.6,73.1,30.09,ESE,104,3.0,3.0,89,0.00,,,2.40,Wunderground v.1.15,2013-07-10 14:50:00,
2013-07-10 11:00:00,77.3,73.5,30.09,East,101,3.0,4.0,88,0.00,,,2.40,Wunderground v.1.15,2013-07-10 15:00:00,
2013-07-10 11:10:00,77.8,73.6,30.10,ENE,71,3.0,3.0,87,0.00,,,2.40,Wunderground v.1.15,2013-07-10 15:10:00,
2013-07-10 11:20:00,78.4,73.5,30.10,East,94,4.0,4.0,85,0.00,,,2.40,Wunderground v.1.15,2013-07-10 15:20:00,
2013-07-10 11:30:00,79.2,74.3,30.10,East,87,3.0,3.0,85,0.00,,,2.40,Wunderground v.1.15,2013-07-10 15:30:00,
2013-07-10 11:40:00,79.6,74.3,30.10,ENE,77,4.0,5.0,84,0.00,,,2.40,Wunderground v.1.15,2013-07-10 15:40:00,
2013-07-10 11:50:00,80.2,74.6,30.10,ENE,71,3.0,3.0,83,0.00,,,2.40,Wunderground v.1.15,2013-07-10 15:50:00,
2013-07-10 12:00:00,80.1,73.4,30.09,ESE,102,5.0,5.0,80,0.00,,,2.40,Wunderground v.1.15,2013-07-10 16:00:00,
2013-07-10 12:10:00,80.8,74.8,30.09,East,98,5.0,5.0,82,0.00,,,2.40,Wunderground v.1.15,2013-07-10 16:10:00,
2013-07-10 12:20:00,80.9,75.6,30.09,East,97,5.0,5.0,84,0.00,,,2.40,Wunderground v.1.15,2013-07-10 16:20:00,
2013-07-10 12:30:00,80.4,74.8,30.09,ESE,108,5.0,5.0,83,0.00,,,2.40,Wunderground v.1.15,2013-07-10 16:30:00,
2013-07-10 12:40:00,80.0,74.4,30.09,ESE,119,4.0,4.0,83,0.00,,,2.40,Wunderground v.1.15,2013-07-10 16:40:00,
2013-07-10 12:50:00,80.3,74.7,30.09,ESE,117,4.0,4.0,83,0.00,,,2.40,Wunderground v.1.15,2013-07-10 16:50:00,
2013-07-10 13:00:00,80.3,73.9,30.08,SE,135,4.0,4.0,81,0.00,,,2.40,Wunderground v.1.15,2013-07-10 17:00:00,
2013-07-10 13:10:00,80.4,74.4,30.08,ESE,120,4.0,4.0,82,0.00,,,2.40,Wunderground v.1.15,2013-07-10 17:10:00,
2013-07-10 13:20:00,80.4,74.4,30.07,SE,139,4.0,4.0,82,0.00,,,2.40,Wunderground v.1.15,2013-07-10 17:20:00,
2013-07-10 13:30:00,80.3,74.7,30.07,South,173,4.0,4.0,83,0.00,,,2.40,Wunderground v.1.15,2013-07-10 17:30:00,
2013-07-10 13:40:00,80.5,74.5,30.07,SSE,156,3.0,3.0,82,0.00,,,2.40,Wunderground v.1.15,2013-07-10 17:40:00,
2013-07-10 13:50:00,80.6,74.2,30.08,SE,135,4.0,4.0,81,0.00,,,2.40,Wunderground v.1.15,2013-07-10 17:50:00,
2013-07-10 14:00:00,81.0,74.6,30.08,ENE,76,3.0,5.0,81,0.00,,,2.40,Wunderground v.1.15,2013-07-10 18:00:00,
2013-07-10 14:10:00,80.8,74.4,30.07,East,94,4.0,4.0,81,0.00,,,2.40,Wunderground v.1.15,2013-07-10 18:10:00,
2013-07-10 14:20:00,81.1,74.7,30.07,NE,54,3.0,3.0,81,0.00,,,2.40,Wunderground v.1.15,2013-07-10 18:20:00,
2013-07-10 14:30:00,80.8,74.4,30.07,East,85,4.0,7.0,81,0.00,,,2.40,Wunderground v.1.15,2013-07-10 18:30:00,
2013-07-10 14:40:00,80.8,74.8,30.07,ESE,116,4.0,4.0,82,0.00,,,2.40,Wunderground v.1.15,2013-07-10 18:40:00,
2013-07-10 16:00:00,82.5,75.7,30.05,East,82,4.0,4.0,80,0.00,,,2.40,Wunderground v.1.15,2013-07-10 20:00:00,
2013-07-10 16:10:00,83.0,76.2,30.04,ENE,57,4.0,7.0,80,0.00,,,2.40,Wunderground v.1.15,2013-07-10 20:10:00,
2013-07-10 16:20:00,82.9,75.3,30.04,SSE,155,5.0,5.0,78,0.00,,,2.40,Wunderground v.1.15,2013-07-10 20:20:00,
2013-07-10 16:30:00,83.3,75.7,30.03,SE,124,4.0,4.0,78,0.00,,,2.40,Wunderground v.1.15,2013-07-10 20:30:00,
2013-07-10 16:40:00,83.6,76.0,30.03,ESE,122,4.0,5.0,78,0.00,,,2.40,Wunderground v.1.15,2013-07-10 20:40:00,
2013-07-10 16:50:00,83.3,76.1,30.04,ENE,74,4.0,4.0,79,0.00,,,2.40,Wunderground v.1.15,2013-07-10 20:50:00,
2013-07-10 17:00:00,83.7,76.9,30.04,ESE,113,4.0,5.0,80,0.00,,,2.40,Wunderground v.1.15,2013-07-10 21:00:00,
2013-07-10 17:10:00,83.3,76.1,30.03,SE,124,4.0,5.0,79,0.00,,,2.40,Wunderground v.1.15,2013-07-10 21:10:00,
2013-07-10 17:20:00,83.6,76.8,30.03,SE,143,4.0,4.0,80,0.00,,,2.40,Wunderground v.1.15,2013-07-10 21:20:00,
2013-07-10 17:30:00,83.3,76.5,30.03,SE,127,4.0,4.0,80,0.00,,,2.40,Wunderground v.1.15,2013-07-10 21:30:00,
2013-07-10 17:40:00,82.5,76.1,30.03,SE,124,5.0,7.0,81,0.00,,,2.40,Wunderground v.1.15,2013-07-10 21:40:00,
2013-07-10 17:50:00,82.8,76.0,30.03,East,95,5.0,5.0,80,0.00,,,2.40,Wunderground v.1.15,2013-07-10 21:50:00,
2013-07-10 18:00:00,83.0,76.2,30.03,East,99,5.0,5.0,80,0.00,,,2.40,Wunderground v.1.15,2013-07-10 22:00:00,
2013-07-10 18:10:00,82.3,75.9,30.03,East,82,4.0,6.0,81,0.00,,,2.40,Wunderground v.1.15,2013-07-10 22:10:00,
2013-07-10 18:20:00,81.9,75.1,30.02,ESE,108,5.0,5.0,80,0.00,,,2.40,Wunderground v.1.15,2013-07-10 22:20:00,
2013-07-10 18:30:00,81.6,75.2,30.02,ESE,117,4.0,4.0,81,0.00,,,2.40,Wunderground v.1.15,2013-07-10 22:30:00,
2013-07-10 18:40:00,81.6,75.2,30.02,SE,136,4.0,4.0,81,0.00,,,2.40,Wunderground v.1.15,2013-07-10 22:40:00,
2013-07-10 18:50:00,81.6,75.2,30.02,East,99,3.0,3.0,81,0.00,,,2.40,Wunderground v.1.15,2013-07-10 22:50:00,
2013-07-10 19:00:00,81.3,74.9,30.02,ESE,118,4.0,4.0,81,0.00,,,2.40,Wunderground v.1.15,2013-07-10 23:00:00,
2013-07-10 19:10:00,81.2,74.8,30.02,ESE,117,2.0,6.0,81,0.00,,,2.40,Wunderground v.1.15,2013-07-10 23:10:00,
2013-07-10 19:20:00,81.1,75.1,30.02,East,89,4.0,4.0,82,0.00,,,2.40,Wunderground v.1.15,2013-07-10 23:20:00,
2013-07-10 19:30:00,81.2,74.8,30.02,SSE,155,2.0,2.0,81,0.00,,,2.40,Wunderground v.1.15,2013-07-10 23:30:00,
2013-07-10 19:40:00,81.1,74.7,30.03,SE,146,2.0,3.0,81,0.00,,,2.40,Wunderground v.1.15,2013-07-10 23:40:00,
2013-07-10 19:50:00,81.0,74.6,30.03,SE,133,3.0,4.0,81,0.00,,,2.40,Wunderground v.1.15,2013-07-10 23:50:00,
2013-07-10 20:00:00,80.8,74.4,30.03,SE,134,3.0,5.0,81,0.00,,,2.40,Wunderground v.1.15,2013-07-11 00:00:00,
2013-07-10 20:10:00,80.7,74.3,30.03,ESE,107,4.0,4.0,81,0.00,,,2.40,Wunderground v.1.15,2013-07-11 00:10:00,
2013-07-10 20:20:00,80.7,74.3,30.03,ESE,105,3.0,3.0,81,0.00,,,2.40,Wunderground v.1.15,2013-07-11 00:20:00,
2013-07-10 20:30:00,80.6,74.2,30.03,SE,141,4.0,5.0,81,0.00,,,2.40,Wunderground v.1.15,2013-07-11 00:30:00,
2013-07-10 20:40:00,80.6,74.6,30.03,SE,144,5.0,5.0,82,0.00,,,2.40,Wunderground v.1.15,2013-07-11 00:40:00,
2013-07-10 20:50:00,80.5,74.5,30.03,ESE,120,4.0,5.0,82,0.00,,,2.40,Wunderground v.1.15,2013-07-11 00:50:00,
2013-07-10 21:00:00,80.5,75.2,30.03,East,98,4.0,4.0,84,0.00,,,2.40,Wunderground v.1.15,2013-07-11 01:00:00,
2013-07-10 21:10:00,80.5,75.2,30.03,SSE,150,3.0,3.0,84,0.00,,,2.40,Wunderground v.1.15,2013-07-11 01:10:00,
2013-07-10 21:20:00,80.5,75.2,30.04,East,97,3.0,3.0,84,0.00,,,2.40,Wunderground v.1.15,2013-07-11 01:20:00,
2013-07-10 21:30:00,80.4,75.1,30.03,SE,135,3.0,3.0,84,0.00,,,2.40,Wunderground v.1.15,2013-07-11 01:30:00,
2013-07-10 21:40:00,80.5,74.9,30.03,SE,124,4.0,4.0,83,0.00,,,2.40,Wunderground v.1.15,2013-07-11 01:40:00,
2013-07-10 21:50:00,80.5,75.2,30.04,SSE,160,4.0,4.0,84,0.00,,,2.40,Wunderground v.1.15,2013-07-11 01:50:00,
2013-07-10 22:00:00,80.6,75.7,30.04,SSW,210,3.0,3.0,85,0.00,,,2.40,Wunderground v.1.15,2013-07-11 02:00:00,
2013-07-10 22:10:00,80.5,75.6,30.04,East,87,3.0,3.0,85,0.00,,,2.40,Wunderground v.1.15,2013-07-11 02:10:00,
2013-07-10 22:20:00,80.5,75.2,30.04,SE,130,4.0,4.0,84,0.00,,,2.40,Wunderground v.1.15,2013-07-11 02:20:00,
2013-07-10 22:30:00,80.6,75.3,30.04,SE,132,3.0,3.0,84,0.00,,,2.40,Wunderground v.1.15,2013-07-11 02:30:00,
2013-07-10 22:40:00,80.6,75.3,30.05,SE,134,3.0,5.0,84,0.00,,,2.40,Wunderground v.1.15,2013-07-11 02:40:00,
2013-07-10 22:50:00,80.7,75.4,30.05,SSE,163,2.0,2.0,84,0.00,,,2.40,Wunderground v.1.15,2013-07-11 02:50:00,
2013-07-10 23:00:00,80.7,75.8,30.05,East,96,3.0,3.0,85,0.00,,,2.40,Wunderground v.1.15,2013-07-11 03:00:00,
2013-07-10 23:10:00,80.8,75.5,30.06,SE,132,3.0,3.0,84,0.00,,,2.40,Wunderground v.1.15,2013-07-11 03:10:00,
2013-07-10 23:20:00,80.9,75.6,30.06,East,89,3.0,3.0,84,0.00,,,2.40,Wunderground v.1.15,2013-07-11 03:20:00,
2013-07-10 23:30:00,81.0,75.7,30.06,SSE,156,2.0,2.0,84,0.00,,,2.40,Wunderground v.1.15,2013-07-11 03:30:00,
2013-07-10 23:40:00,80.8,75.5,30.06,East,85,2.0,4.0,84,0.00,,,2.40,Wunderground v.1.15,2013-07-11 03:40:00,